sensor_id;sensor_type;location;lat;lon;timestamp;P1;durP1;ratioP1;P2;durP2;ratioP2
2618;SDS011;1319;52.346;13.096;2022-08-21T00:00:33;7.77;;;6.70;;
2618;SDS011;1319;52.346;13.096;2022-08-21T00:03:00;8.50;;;6.70;;
2618;SDS011;1319;52.346;13.096;2022-08-21T00:05:26;10.43;;;6.47;;
2618;SDS011;1319;52.346;13.096;2022-08-21T00:07:51;8.63;;;6.37;;
2618;SDS011;1319;52.346;13.096;2022-08-21T00:10:16;8.17;;;7.00;;
2618;SDS011;1319;52.346;13.096;2022-08-21T00:12:42;7.37;;;6.63;;
2618;SDS011;1319;52.346;13.096;2022-08-21T00:15:08;7.00;;;6.10;;
2618;SDS011;1319;52.346;13.096;2022-08-21T00:17:33;9.87;;;6.30;;
2618;SDS011;1319;52.346;13.096;2022-08-21T00:19:58;9.97;;;6.13;;
2618;SDS011;1319;52.346;13.096;2022-08-21T00:22:24;10.57;;;6.20;;
2618;SDS011;1319;52.346;13.096;2022-08-21T00:24:49;7.40;;;6.30;;
2618;SDS011;1319;52.346;13.096;2022-08-21T00:27:14;7.27;;;6.17;;
2618;SDS011;1319;52.346;13.096;2022-08-21T00:29:39;6.97;;;6.27;;
2618;SDS011;1319;52.346;13.096;2022-08-21T00:32:05;8.80;;;6.53;;
2618;SDS011;1319;52.346;13.096;2022-08-21T00:34:30;9.80;;;6.17;;
2618;SDS011;1319;52.346;13.096;2022-08-21T00:36:55;7.73;;;6.63;;
2618;SDS011;1319;52.346;13.096;2022-08-21T00:39:20;8.20;;;5.77;;
2618;SDS011;1319;52.346;13.096;2022-08-21T00:41:46;10.33;;;6.40;;
2618;SDS011;1319;52.346;13.096;2022-08-21T00:44:13;8.60;;;6.00;;
2618;SDS011;1319;52.346;13.096;2022-08-21T00:46:39;9.33;;;5.43;;
2618;SDS011;1319;52.346;13.096;2022-08-21T00:49:05;9.03;;;5.80;;
2618;SDS011;1319;52.346;13.096;2022-08-21T00:51:53;8.10;;;5.40;;
2618;SDS011;1319;52.346;13.096;2022-08-21T00:54:17;6.37;;;5.67;;
2618;SDS011;1319;52.346;13.096;2022-08-21T00:56:43;9.47;;;5.70;;
2618;SDS011;1319;52.346;13.096;2022-08-21T00:59:08;11.77;;;5.80;;
2618;SDS011;1319;52.346;13.096;2022-08-21T01:01:34;6.23;;;5.57;;
2618;SDS011;1319;52.346;13.096;2022-08-21T01:03:59;7.10;;;5.37;;
2618;SDS011;1319;52.346;13.096;2022-08-21T01:06:25;6.47;;;4.70;;
2618;SDS011;1319;52.346;13.096;2022-08-21T01:08:50;8.80;;;5.53;;
2618;SDS011;1319;52.346;13.096;2022-08-21T01:11:15;9.20;;;5.90;;
2618;SDS011;1319;52.346;13.096;2022-08-21T01:13:41;12.37;;;5.13;;
2618;SDS011;1319;52.346;13.096;2022-08-21T01:16:12;5.87;;;5.23;;
2618;SDS011;1319;52.346;13.096;2022-08-21T01:18:38;9.40;;;5.40;;
2618;SDS011;1319;52.346;13.096;2022-08-21T01:23:28;9.07;;;5.03;;
2618;SDS011;1319;52.346;13.096;2022-08-21T01:25:54;10.70;;;5.40;;
2618;SDS011;1319;52.346;13.096;2022-08-21T01:28:19;9.57;;;4.77;;
2618;SDS011;1319;52.346;13.096;2022-08-21T01:30:45;5.50;;;4.80;;
2618;SDS011;1319;52.346;13.096;2022-08-21T01:33:10;6.57;;;5.50;;
2618;SDS011;1319;52.346;13.096;2022-08-21T01:35:36;9.67;;;5.40;;
2618;SDS011;1319;52.346;13.096;2022-08-21T01:38:01;10.93;;;5.60;;
2618;SDS011;1319;52.346;13.096;2022-08-21T01:40:26;10.83;;;5.60;;
2618;SDS011;1319;52.346;13.096;2022-08-21T01:42:51;6.93;;;5.40;;
2618;SDS011;1319;52.346;13.096;2022-08-21T01:45:18;8.87;;;5.43;;
2618;SDS011;1319;52.346;13.096;2022-08-21T01:47:43;9.27;;;5.33;;
2618;SDS011;1319;52.346;13.096;2022-08-21T01:50:10;7.03;;;5.03;;
2618;SDS011;1319;52.346;13.096;2022-08-21T01:52:36;6.63;;;5.30;;
2618;SDS011;1319;52.346;13.096;2022-08-21T01:55:01;14.50;;;4.97;;
2618;SDS011;1319;52.346;13.096;2022-08-21T01:57:27;6.23;;;4.33;;
2618;SDS011;1319;52.346;13.096;2022-08-21T01:59:52;8.20;;;4.73;;
2618;SDS011;1319;52.346;13.096;2022-08-21T02:02:17;6.57;;;4.43;;
2618;SDS011;1319;52.346;13.096;2022-08-21T02:04:43;9.10;;;4.63;;
2618;SDS011;1319;52.346;13.096;2022-08-21T02:07:08;5.43;;;4.43;;
2618;SDS011;1319;52.346;13.096;2022-08-21T02:09:34;6.73;;;4.83;;
2618;SDS011;1319;52.346;13.096;2022-08-21T02:11:59;8.30;;;4.63;;
2618;SDS011;1319;52.346;13.096;2022-08-21T02:14:24;10.33;;;4.80;;
2618;SDS011;1319;52.346;13.096;2022-08-21T02:16:50;8.00;;;4.70;;
2618;SDS011;1319;52.346;13.096;2022-08-21T02:19:15;6.70;;;4.03;;
2618;SDS011;1319;52.346;13.096;2022-08-21T02:21:40;11.80;;;4.90;;
2618;SDS011;1319;52.346;13.096;2022-08-21T02:24:06;6.50;;;4.20;;
2618;SDS011;1319;52.346;13.096;2022-08-21T02:26:31;14.53;;;4.73;;
2618;SDS011;1319;52.346;13.096;2022-08-21T02:28:56;9.57;;;4.17;;
2618;SDS011;1319;52.346;13.096;2022-08-21T02:31:21;8.57;;;4.67;;
2618;SDS011;1319;52.346;13.096;2022-08-21T02:33:46;8.33;;;4.50;;
2618;SDS011;1319;52.346;13.096;2022-08-21T02:36:12;8.77;;;4.43;;
2618;SDS011;1319;52.346;13.096;2022-08-21T02:38:38;7.90;;;4.70;;
2618;SDS011;1319;52.346;13.096;2022-08-21T02:41:08;7.77;;;3.83;;
2618;SDS011;1319;52.346;13.096;2022-08-21T02:43:33;12.43;;;4.40;;
2618;SDS011;1319;52.346;13.096;2022-08-21T02:45:59;5.70;;;3.80;;
2618;SDS011;1319;52.346;13.096;2022-08-21T02:48:25;6.27;;;4.20;;
2618;SDS011;1319;52.346;13.096;2022-08-21T02:50:52;9.00;;;3.87;;
2618;SDS011;1319;52.346;13.096;2022-08-21T02:53:17;13.80;;;3.83;;
2618;SDS011;1319;52.346;13.096;2022-08-21T02:55:44;5.47;;;3.30;;
2618;SDS011;1319;52.346;13.096;2022-08-21T02:58:10;8.30;;;3.07;;
2618;SDS011;1319;52.346;13.096;2022-08-21T03:00:36;8.23;;;3.27;;
2618;SDS011;1319;52.346;13.096;2022-08-21T03:03:02;6.90;;;3.50;;
2618;SDS011;1319;52.346;13.096;2022-08-21T03:05:28;5.77;;;3.17;;
2618;SDS011;1319;52.346;13.096;2022-08-21T03:07:55;7.13;;;3.57;;
2618;SDS011;1319;52.346;13.096;2022-08-21T03:10:21;13.93;;;3.87;;
2618;SDS011;1319;52.346;13.096;2022-08-21T03:12:47;7.50;;;3.67;;
2618;SDS011;1319;52.346;13.096;2022-08-21T03:15:13;10.23;;;3.67;;
2618;SDS011;1319;52.346;13.096;2022-08-21T03:17:38;6.63;;;3.80;;
2618;SDS011;1319;52.346;13.096;2022-08-21T03:20:04;5.53;;;3.57;;
2618;SDS011;1319;52.346;13.096;2022-08-21T03:22:30;5.63;;;3.63;;
2618;SDS011;1319;52.346;13.096;2022-08-21T03:24:55;12.40;;;3.70;;
2618;SDS011;1319;52.346;13.096;2022-08-21T03:27:22;4.33;;;3.33;;
2618;SDS011;1319;52.346;13.096;2022-08-21T03:29:47;5.73;;;3.83;;
2618;SDS011;1319;52.346;13.096;2022-08-21T03:32:12;6.80;;;3.50;;
2618;SDS011;1319;52.346;13.096;2022-08-21T03:34:38;12.07;;;4.00;;
2618;SDS011;1319;52.346;13.096;2022-08-21T03:37:04;5.30;;;3.57;;
2618;SDS011;1319;52.346;13.096;2022-08-21T03:39:29;7.23;;;3.93;;
2618;SDS011;1319;52.346;13.096;2022-08-21T03:41:55;5.10;;;3.73;;
2618;SDS011;1319;52.346;13.096;2022-08-21T03:44:20;8.10;;;3.70;;
2618;SDS011;1319;52.346;13.096;2022-08-21T03:46:45;9.97;;;4.07;;
2618;SDS011;1319;52.346;13.096;2022-08-21T03:49:11;8.17;;;4.10;;
2618;SDS011;1319;52.346;13.096;2022-08-21T03:51:37;8.07;;;4.33;;
2618;SDS011;1319;52.346;13.096;2022-08-21T03:54:02;7.77;;;4.23;;
2618;SDS011;1319;52.346;13.096;2022-08-21T03:56:28;6.57;;;3.87;;
2618;SDS011;1319;52.346;13.096;2022-08-21T03:58:53;7.67;;;3.80;;
2618;SDS011;1319;52.346;13.096;2022-08-21T04:01:18;7.63;;;3.87;;
2618;SDS011;1319;52.346;13.096;2022-08-21T04:03:43;5.67;;;4.03;;
2618;SDS011;1319;52.346;13.096;2022-08-21T04:06:08;10.93;;;4.00;;
2618;SDS011;1319;52.346;13.096;2022-08-21T04:08:34;14.37;;;4.23;;
2618;SDS011;1319;52.346;13.096;2022-08-21T04:11:00;7.83;;;3.87;;
2618;SDS011;1319;52.346;13.096;2022-08-21T04:13:25;9.13;;;4.33;;
2618;SDS011;1319;52.346;13.096;2022-08-21T04:15:53;12.93;;;4.80;;
2618;SDS011;1319;52.346;13.096;2022-08-21T04:18:18;9.83;;;4.63;;
2618;SDS011;1319;52.346;13.096;2022-08-21T04:20:44;9.50;;;4.13;;
2618;SDS011;1319;52.346;13.096;2022-08-21T04:23:09;9.33;;;4.50;;
2618;SDS011;1319;52.346;13.096;2022-08-21T04:25:35;8.17;;;4.57;;
2618;SDS011;1319;52.346;13.096;2022-08-21T04:28:00;6.37;;;4.33;;
2618;SDS011;1319;52.346;13.096;2022-08-21T04:30:26;11.60;;;4.70;;
2618;SDS011;1319;52.346;13.096;2022-08-21T04:32:51;11.27;;;4.80;;
2618;SDS011;1319;52.346;13.096;2022-08-21T04:35:18;13.00;;;4.43;;
2618;SDS011;1319;52.346;13.096;2022-08-21T04:37:44;13.23;;;4.63;;
2618;SDS011;1319;52.346;13.096;2022-08-21T04:40:10;8.53;;;4.17;;
2618;SDS011;1319;52.346;13.096;2022-08-21T04:42:41;8.47;;;4.47;;
2618;SDS011;1319;52.346;13.096;2022-08-21T04:45:06;8.10;;;4.80;;
2618;SDS011;1319;52.346;13.096;2022-08-21T04:47:32;12.27;;;4.70;;
2618;SDS011;1319;52.346;13.096;2022-08-21T04:49:57;7.60;;;4.57;;
2618;SDS011;1319;52.346;13.096;2022-08-21T04:52:22;8.83;;;4.47;;
2618;SDS011;1319;52.346;13.096;2022-08-21T04:54:47;8.83;;;4.60;;
2618;SDS011;1319;52.346;13.096;2022-08-21T04:57:14;11.73;;;4.90;;
2618;SDS011;1319;52.346;13.096;2022-08-21T04:59:45;13.93;;;4.50;;
2618;SDS011;1319;52.346;13.096;2022-08-21T05:02:11;11.57;;;4.50;;
2618;SDS011;1319;52.346;13.096;2022-08-21T05:04:38;8.80;;;4.30;;
2618;SDS011;1319;52.346;13.096;2022-08-21T05:07:05;9.20;;;4.10;;
2618;SDS011;1319;52.346;13.096;2022-08-21T05:09:31;7.57;;;4.40;;
2618;SDS011;1319;52.346;13.096;2022-08-21T05:11:57;6.67;;;4.03;;
2618;SDS011;1319;52.346;13.096;2022-08-21T05:14:22;7.27;;;4.33;;
2618;SDS011;1319;52.346;13.096;2022-08-21T05:16:48;7.83;;;4.03;;
2618;SDS011;1319;52.346;13.096;2022-08-21T05:19:13;7.10;;;4.57;;
2618;SDS011;1319;52.346;13.096;2022-08-21T05:21:42;10.17;;;4.60;;
2618;SDS011;1319;52.346;13.096;2022-08-21T05:24:08;12.27;;;4.10;;
2618;SDS011;1319;52.346;13.096;2022-08-21T05:26:34;15.90;;;4.63;;
2618;SDS011;1319;52.346;13.096;2022-08-21T05:28:59;14.73;;;4.20;;
2618;SDS011;1319;52.346;13.096;2022-08-21T05:31:24;8.23;;;3.60;;
2618;SDS011;1319;52.346;13.096;2022-08-21T05:33:49;11.47;;;4.20;;
2618;SDS011;1319;52.346;13.096;2022-08-21T05:36:16;8.03;;;4.40;;
2618;SDS011;1319;52.346;13.096;2022-08-21T05:38:41;6.73;;;3.73;;
2618;SDS011;1319;52.346;13.096;2022-08-21T05:41:06;8.30;;;3.63;;
2618;SDS011;1319;52.346;13.096;2022-08-21T05:43:32;12.00;;;3.63;;
2618;SDS011;1319;52.346;13.096;2022-08-21T05:46:01;8.97;;;3.60;;
2618;SDS011;1319;52.346;13.096;2022-08-21T05:48:26;8.83;;;3.10;;
2618;SDS011;1319;52.346;13.096;2022-08-21T05:50:51;8.73;;;3.13;;
2618;SDS011;1319;52.346;13.096;2022-08-21T05:53:17;6.60;;;3.13;;
2618;SDS011;1319;52.346;13.096;2022-08-21T05:55:43;8.93;;;2.87;;
2618;SDS011;1319;52.346;13.096;2022-08-21T05:58:08;5.83;;;2.80;;
2618;SDS011;1319;52.346;13.096;2022-08-21T06:00:34;8.30;;;2.83;;
2618;SDS011;1319;52.346;13.096;2022-08-21T06:02:59;7.23;;;2.90;;
2618;SDS011;1319;52.346;13.096;2022-08-21T06:05:25;6.00;;;2.70;;
2618;SDS011;1319;52.346;13.096;2022-08-21T06:07:51;5.73;;;2.60;;
2618;SDS011;1319;52.346;13.096;2022-08-21T06:10:16;9.30;;;3.00;;
2618;SDS011;1319;52.346;13.096;2022-08-21T06:12:42;7.83;;;2.43;;
2618;SDS011;1319;52.346;13.096;2022-08-21T06:15:07;4.23;;;2.33;;
2618;SDS011;1319;52.346;13.096;2022-08-21T06:17:32;5.27;;;2.53;;
2618;SDS011;1319;52.346;13.096;2022-08-21T06:19:57;8.53;;;2.37;;
2618;SDS011;1319;52.346;13.096;2022-08-21T06:22:23;7.37;;;2.90;;
2618;SDS011;1319;52.346;13.096;2022-08-21T06:24:48;6.60;;;2.60;;
2618;SDS011;1319;52.346;13.096;2022-08-21T06:27:13;5.50;;;2.80;;
2618;SDS011;1319;52.346;13.096;2022-08-21T06:29:39;7.27;;;2.20;;
2618;SDS011;1319;52.346;13.096;2022-08-21T06:32:04;9.10;;;2.20;;
2618;SDS011;1319;52.346;13.096;2022-08-21T06:34:31;5.80;;;2.63;;
2618;SDS011;1319;52.346;13.096;2022-08-21T06:36:56;7.33;;;2.60;;
2618;SDS011;1319;52.346;13.096;2022-08-21T06:39:22;6.33;;;2.40;;
2618;SDS011;1319;52.346;13.096;2022-08-21T06:41:47;10.57;;;2.30;;
2618;SDS011;1319;52.346;13.096;2022-08-21T06:44:15;5.27;;;2.70;;
2618;SDS011;1319;52.346;13.096;2022-08-21T06:46:40;5.60;;;2.40;;
2618;SDS011;1319;52.346;13.096;2022-08-21T06:49:06;10.63;;;2.57;;
2618;SDS011;1319;52.346;13.096;2022-08-21T06:51:31;6.67;;;2.47;;
2618;SDS011;1319;52.346;13.096;2022-08-21T06:53:56;10.80;;;2.73;;
2618;SDS011;1319;52.346;13.096;2022-08-21T06:56:22;4.97;;;2.17;;
2618;SDS011;1319;52.346;13.096;2022-08-21T06:58:47;6.90;;;2.30;;
2618;SDS011;1319;52.346;13.096;2022-08-21T07:01:12;6.67;;;2.10;;
2618;SDS011;1319;52.346;13.096;2022-08-21T07:03:38;7.93;;;2.07;;
2618;SDS011;1319;52.346;13.096;2022-08-21T07:06:04;7.03;;;2.00;;
2618;SDS011;1319;52.346;13.096;2022-08-21T07:08:30;6.70;;;2.43;;
2618;SDS011;1319;52.346;13.096;2022-08-21T07:10:56;6.17;;;2.03;;
2618;SDS011;1319;52.346;13.096;2022-08-21T07:13:22;4.47;;;1.63;;
2618;SDS011;1319;52.346;13.096;2022-08-21T07:15:47;5.33;;;1.87;;
2618;SDS011;1319;52.346;13.096;2022-08-21T07:18:12;7.93;;;2.20;;
2618;SDS011;1319;52.346;13.096;2022-08-21T07:20:38;4.80;;;2.03;;
2618;SDS011;1319;52.346;13.096;2022-08-21T07:23:04;7.30;;;2.20;;
2618;SDS011;1319;52.346;13.096;2022-08-21T07:25:30;7.57;;;1.93;;
2618;SDS011;1319;52.346;13.096;2022-08-21T07:27:56;6.03;;;2.20;;
2618;SDS011;1319;52.346;13.096;2022-08-21T07:30:21;4.78;;;2.13;;
2618;SDS011;1319;52.346;13.096;2022-08-21T07:32:47;4.43;;;2.10;;
2618;SDS011;1319;52.346;13.096;2022-08-21T07:35:14;7.63;;;2.07;;
2618;SDS011;1319;52.346;13.096;2022-08-21T07:37:39;5.07;;;1.77;;
2618;SDS011;1319;52.346;13.096;2022-08-21T07:40:04;5.07;;;1.70;;
2618;SDS011;1319;52.346;13.096;2022-08-21T07:42:30;7.37;;;2.00;;
2618;SDS011;1319;52.346;13.096;2022-08-21T07:44:55;4.20;;;1.70;;
2618;SDS011;1319;52.346;13.096;2022-08-21T07:47:20;5.15;;;1.70;;
2618;SDS011;1319;52.346;13.096;2022-08-21T07:49:46;5.63;;;1.80;;
2618;SDS011;1319;52.346;13.096;2022-08-21T07:52:11;4.03;;;1.80;;
2618;SDS011;1319;52.346;13.096;2022-08-21T07:54:36;5.93;;;1.63;;
2618;SDS011;1319;52.346;13.096;2022-08-21T07:57:01;6.07;;;1.60;;
2618;SDS011;1319;52.346;13.096;2022-08-21T07:59:27;4.65;;;1.50;;
2618;SDS011;1319;52.346;13.096;2022-08-21T08:01:52;4.82;;;1.20;;
2618;SDS011;1319;52.346;13.096;2022-08-21T08:04:17;4.93;;;1.60;;
2618;SDS011;1319;52.346;13.096;2022-08-21T08:06:43;4.28;;;1.30;;
2618;SDS011;1319;52.346;13.096;2022-08-21T08:09:08;5.20;;;1.63;;
2618;SDS011;1319;52.346;13.096;2022-08-21T08:11:33;4.40;;;1.60;;
2618;SDS011;1319;52.346;13.096;2022-08-21T08:13:58;5.10;;;1.70;;
2618;SDS011;1319;52.346;13.096;2022-08-21T08:16:24;5.97;;;1.55;;
2618;SDS011;1319;52.346;13.096;2022-08-21T08:18:49;5.18;;;1.73;;
2618;SDS011;1319;52.346;13.096;2022-08-21T08:21:15;6.22;;;1.50;;
2618;SDS011;1319;52.346;13.096;2022-08-21T08:23:41;5.97;;;1.73;;
2618;SDS011;1319;52.346;13.096;2022-08-21T08:26:06;5.63;;;1.67;;
2618;SDS011;1319;52.346;13.096;2022-08-21T08:28:32;4.57;;;1.50;;
2618;SDS011;1319;52.346;13.096;2022-08-21T08:30:58;5.38;;;1.60;;
2618;SDS011;1319;52.346;13.096;2022-08-21T08:33:23;5.00;;;1.75;;
2618;SDS011;1319;52.346;13.096;2022-08-21T08:35:49;3.47;;;1.92;;
2618;SDS011;1319;52.346;13.096;2022-08-21T08:38:15;4.93;;;1.35;;
2618;SDS011;1319;52.346;13.096;2022-08-21T08:40:46;4.22;;;1.50;;
2618;SDS011;1319;52.346;13.096;2022-08-21T08:43:13;6.88;;;1.50;;
2618;SDS011;1319;52.346;13.096;2022-08-21T08:45:39;3.58;;;1.58;;
2618;SDS011;1319;52.346;13.096;2022-08-21T08:48:05;6.22;;;1.40;;
2618;SDS011;1319;52.346;13.096;2022-08-21T08:50:44;3.33;;;1.60;;
2618;SDS011;1319;52.346;13.096;2022-08-21T08:53:17;7.65;;;1.83;;
2618;SDS011;1319;52.346;13.096;2022-08-21T08:55:45;4.13;;;1.70;;
2618;SDS011;1319;52.346;13.096;2022-08-21T08:58:12;3.92;;;1.75;;
2618;SDS011;1319;52.346;13.096;2022-08-21T09:00:38;4.90;;;1.63;;
2618;SDS011;1319;52.346;13.096;2022-08-21T09:03:03;3.40;;;1.60;;
2618;SDS011;1319;52.346;13.096;2022-08-21T09:05:30;5.35;;;1.88;;
2618;SDS011;1319;52.346;13.096;2022-08-21T09:08:15;6.65;;;1.85;;
2618;SDS011;1319;52.346;13.096;2022-08-21T09:11:02;8.68;;;2.13;;
2618;SDS011;1319;52.346;13.096;2022-08-21T09:16:10;6.43;;;1.90;;
2618;SDS011;1319;52.346;13.096;2022-08-21T09:23:47;5.20;;;1.75;;
2618;SDS011;1319;52.346;13.096;2022-08-21T09:26:16;8.07;;;1.83;;
2618;SDS011;1319;52.346;13.096;2022-08-21T09:28:41;6.72;;;2.10;;
2618;SDS011;1319;52.346;13.096;2022-08-21T09:31:08;3.65;;;1.63;;
2618;SDS011;1319;52.346;13.096;2022-08-21T09:33:36;6.03;;;1.90;;
2618;SDS011;1319;52.346;13.096;2022-08-21T09:36:02;6.53;;;1.90;;
2618;SDS011;1319;52.346;13.096;2022-08-21T09:38:32;11.40;;;1.85;;
2618;SDS011;1319;52.346;13.096;2022-08-21T09:40:59;4.53;;;1.70;;
2618;SDS011;1319;52.346;13.096;2022-08-21T09:43:25;3.33;;;1.50;;
2618;SDS011;1319;52.346;13.096;2022-08-21T09:46:19;8.30;;;2.08;;
2618;SDS011;1319;52.346;13.096;2022-08-21T09:48:41;8.68;;;2.10;;
2618;SDS011;1319;52.346;13.096;2022-08-21T09:51:07;3.95;;;1.75;;
2618;SDS011;1319;52.346;13.096;2022-08-21T09:53:33;4.60;;;1.83;;
2618;SDS011;1319;52.346;13.096;2022-08-21T09:56:01;5.32;;;1.55;;
2618;SDS011;1319;52.346;13.096;2022-08-21T09:58:46;6.22;;;1.88;;
2618;SDS011;1319;52.346;13.096;2022-08-21T10:01:13;4.68;;;1.70;;
2618;SDS011;1319;52.346;13.096;2022-08-21T10:03:38;4.85;;;1.83;;
2618;SDS011;1319;52.346;13.096;2022-08-21T10:06:05;7.45;;;2.10;;
2618;SDS011;1319;52.346;13.096;2022-08-21T10:08:33;3.20;;;1.65;;
2618;SDS011;1319;52.346;13.096;2022-08-21T10:11:04;3.15;;;1.92;;
2618;SDS011;1319;52.346;13.096;2022-08-21T10:21:25;3.87;;;1.80;;
2618;SDS011;1319;52.346;13.096;2022-08-21T10:31:18;4.13;;;1.50;;
2618;SDS011;1319;52.346;13.096;2022-08-21T10:36:32;4.95;;;1.88;;
2618;SDS011;1319;52.346;13.096;2022-08-21T10:39:18;3.70;;;1.55;;
2618;SDS011;1319;52.346;13.096;2022-08-21T10:54:40;3.83;;;1.40;;
2618;SDS011;1319;52.346;13.096;2022-08-21T10:57:51;2.10;;;1.30;;
2618;SDS011;1319;52.346;13.096;2022-08-21T10:59:57;4.30;;;1.60;;
2618;SDS011;1319;52.346;13.096;2022-08-21T11:02:29;5.15;;;1.70;;
2618;SDS011;1319;52.346;13.096;2022-08-21T11:05:01;1.95;;;1.45;;
2618;SDS011;1319;52.346;13.096;2022-08-21T11:07:28;2.35;;;1.55;;
2618;SDS011;1319;52.346;13.096;2022-08-21T11:09:55;3.53;;;1.58;;
2618;SDS011;1319;52.346;13.096;2022-08-21T11:12:44;4.43;;;1.70;;
2618;SDS011;1319;52.346;13.096;2022-08-21T11:15:16;2.75;;;1.70;;
2618;SDS011;1319;52.346;13.096;2022-08-21T11:17:45;3.85;;;1.80;;
2618;SDS011;1319;52.346;13.096;2022-08-21T11:20:17;5.82;;;1.80;;
2618;SDS011;1319;52.346;13.096;2022-08-21T11:22:53;6.82;;;1.75;;
2618;SDS011;1319;52.346;13.096;2022-08-21T11:25:21;10.30;;;1.95;;
2618;SDS011;1319;52.346;13.096;2022-08-21T11:30:42;3.58;;;1.60;;
2618;SDS011;1319;52.346;13.096;2022-08-21T11:33:21;4.53;;;1.88;;
2618;SDS011;1319;52.346;13.096;2022-08-21T11:35:51;5.07;;;1.70;;
2618;SDS011;1319;52.346;13.096;2022-08-21T11:38:29;6.60;;;1.85;;
2618;SDS011;1319;52.346;13.096;2022-08-21T11:46:36;6.78;;;1.95;;
2618;SDS011;1319;52.346;13.096;2022-08-21T11:49:53;6.53;;;1.90;;
2618;SDS011;1319;52.346;13.096;2022-08-21T11:51:53;4.38;;;1.70;;
2618;SDS011;1319;52.346;13.096;2022-08-21T11:57:24;7.97;;;1.90;;
2618;SDS011;1319;52.346;13.096;2022-08-21T11:59:49;6.03;;;2.20;;
2618;SDS011;1319;52.346;13.096;2022-08-21T12:02:18;6.50;;;1.77;;
2618;SDS011;1319;52.346;13.096;2022-08-21T12:04:46;5.53;;;1.80;;
2618;SDS011;1319;52.346;13.096;2022-08-21T12:07:12;3.70;;;1.70;;
2618;SDS011;1319;52.346;13.096;2022-08-21T12:09:38;4.75;;;1.70;;
2618;SDS011;1319;52.346;13.096;2022-08-21T12:12:10;3.20;;;1.70;;
2618;SDS011;1319;52.346;13.096;2022-08-21T12:14:37;3.92;;;2.05;;
2618;SDS011;1319;52.346;13.096;2022-08-21T12:17:04;7.30;;;2.10;;
2618;SDS011;1319;52.346;13.096;2022-08-21T12:19:30;5.75;;;1.92;;
2618;SDS011;1319;52.346;13.096;2022-08-21T12:22:00;5.65;;;1.80;;
2618;SDS011;1319;52.346;13.096;2022-08-21T12:24:36;8.25;;;2.00;;
2618;SDS011;1319;52.346;13.096;2022-08-21T12:30:37;5.18;;;2.08;;
2618;SDS011;1319;52.346;13.096;2022-08-21T12:37:39;8.70;;;1.98;;
2618;SDS011;1319;52.346;13.096;2022-08-21T12:40:13;5.05;;;1.75;;
2618;SDS011;1319;52.346;13.096;2022-08-21T12:42:44;5.75;;;1.90;;
2618;SDS011;1319;52.346;13.096;2022-08-21T12:45:19;6.68;;;1.95;;
2618;SDS011;1319;52.346;13.096;2022-08-21T12:47:46;4.80;;;1.85;;
2618;SDS011;1319;52.346;13.096;2022-08-21T12:50:15;5.60;;;1.77;;
2618;SDS011;1319;52.346;13.096;2022-08-21T12:52:51;9.88;;;2.22;;
2618;SDS011;1319;52.346;13.096;2022-08-21T12:55:25;7.03;;;2.00;;
2618;SDS011;1319;52.346;13.096;2022-08-21T12:57:50;5.53;;;2.08;;
2618;SDS011;1319;52.346;13.096;2022-08-21T13:00:20;5.00;;;1.92;;
2618;SDS011;1319;52.346;13.096;2022-08-21T13:02:47;7.07;;;1.85;;
2618;SDS011;1319;52.346;13.096;2022-08-21T13:05:15;4.82;;;1.85;;
2618;SDS011;1319;52.346;13.096;2022-08-21T13:07:44;5.05;;;1.98;;
2618;SDS011;1319;52.346;13.096;2022-08-21T13:10:16;7.55;;;2.53;;
2618;SDS011;1319;52.346;13.096;2022-08-21T13:12:41;5.22;;;2.08;;
2618;SDS011;1319;52.346;13.096;2022-08-21T13:15:07;6.47;;;2.00;;
2618;SDS011;1319;52.346;13.096;2022-08-21T13:17:35;7.82;;;2.20;;
2618;SDS011;1319;52.346;13.096;2022-08-21T13:20:05;5.82;;;1.95;;
2618;SDS011;1319;52.346;13.096;2022-08-21T13:22:31;5.03;;;2.10;;
2618;SDS011;1319;52.346;13.096;2022-08-21T13:24:56;15.02;;;2.25;;
2618;SDS011;1319;52.346;13.096;2022-08-21T13:27:27;8.90;;;2.05;;
2618;SDS011;1319;52.346;13.096;2022-08-21T13:32:34;3.95;;;1.90;;
2618;SDS011;1319;52.346;13.096;2022-08-21T13:35:06;3.53;;;1.80;;
2618;SDS011;1319;52.346;13.096;2022-08-21T13:37:32;3.33;;;1.73;;
2618;SDS011;1319;52.346;13.096;2022-08-21T13:39:57;4.43;;;1.85;;
2618;SDS011;1319;52.346;13.096;2022-08-21T13:42:22;7.10;;;2.20;;
2618;SDS011;1319;52.346;13.096;2022-08-21T13:44:48;3.65;;;2.05;;
2618;SDS011;1319;52.346;13.096;2022-08-21T13:47:16;6.63;;;2.03;;
2618;SDS011;1319;52.346;13.096;2022-08-21T13:49:44;3.60;;;1.90;;
2618;SDS011;1319;52.346;13.096;2022-08-21T13:52:14;4.32;;;1.88;;
2618;SDS011;1319;52.346;13.096;2022-08-21T13:54:40;6.43;;;1.70;;
2618;SDS011;1319;52.346;13.096;2022-08-21T13:57:18;5.30;;;2.20;;
2618;SDS011;1319;52.346;13.096;2022-08-21T13:59:44;7.25;;;2.30;;
2618;SDS011;1319;52.346;13.096;2022-08-21T14:04:35;6.60;;;2.13;;
2618;SDS011;1319;52.346;13.096;2022-08-21T14:07:02;3.17;;;2.05;;
2618;SDS011;1319;52.346;13.096;2022-08-21T14:09:30;10.93;;;2.30;;
2618;SDS011;1319;52.346;13.096;2022-08-21T14:11:56;5.88;;;2.28;;
2618;SDS011;1319;52.346;13.096;2022-08-21T14:14:23;6.07;;;2.00;;
2618;SDS011;1319;52.346;13.096;2022-08-21T14:16:54;6.82;;;2.30;;
2618;SDS011;1319;52.346;13.096;2022-08-21T14:19:21;3.17;;;1.90;;
2618;SDS011;1319;52.346;13.096;2022-08-21T14:21:47;6.25;;;2.00;;
2618;SDS011;1319;52.346;13.096;2022-08-21T14:24:13;8.05;;;2.30;;
2618;SDS011;1319;52.346;13.096;2022-08-21T14:29:14;13.00;;;2.40;;
2618;SDS011;1319;52.346;13.096;2022-08-21T14:31:40;5.47;;;1.90;;
2618;SDS011;1319;52.346;13.096;2022-08-21T14:34:07;4.55;;;2.13;;
2618;SDS011;1319;52.346;13.096;2022-08-21T14:36:33;3.60;;;2.20;;
2618;SDS011;1319;52.346;13.096;2022-08-21T14:38:58;6.40;;;2.15;;
2618;SDS011;1319;52.346;13.096;2022-08-21T14:41:24;5.28;;;2.03;;
2618;SDS011;1319;52.346;13.096;2022-08-21T14:43:52;3.97;;;2.00;;
2618;SDS011;1319;52.346;13.096;2022-08-21T14:46:20;4.10;;;2.25;;
2618;SDS011;1319;52.346;13.096;2022-08-21T14:48:46;8.00;;;2.00;;
2618;SDS011;1319;52.346;13.096;2022-08-21T14:51:12;8.07;;;2.20;;
2618;SDS011;1319;52.346;13.096;2022-08-21T14:53:37;8.57;;;2.17;;
2618;SDS011;1319;52.346;13.096;2022-08-21T14:56:03;4.60;;;2.13;;
2618;SDS011;1319;52.346;13.096;2022-08-21T14:58:36;6.18;;;2.20;;
2618;SDS011;1319;52.346;13.096;2022-08-21T15:01:02;6.82;;;1.95;;
2618;SDS011;1319;52.346;13.096;2022-08-21T15:03:29;4.60;;;2.42;;
2618;SDS011;1319;52.346;13.096;2022-08-21T15:05:54;3.72;;;2.08;;
2618;SDS011;1319;52.346;13.096;2022-08-21T15:08:19;5.57;;;2.22;;
2618;SDS011;1319;52.346;13.096;2022-08-21T15:10:45;6.32;;;2.25;;
2618;SDS011;1319;52.346;13.096;2022-08-21T15:13:11;8.23;;;2.50;;
2618;SDS011;1319;52.346;13.096;2022-08-21T15:15:45;7.47;;;2.72;;
2618;SDS011;1319;52.346;13.096;2022-08-21T15:18:12;6.20;;;2.08;;
2618;SDS011;1319;52.346;13.096;2022-08-21T15:20:37;2.75;;;2.08;;
2618;SDS011;1319;52.346;13.096;2022-08-21T15:23:03;6.28;;;2.35;;
2618;SDS011;1319;52.346;13.096;2022-08-21T15:25:29;7.15;;;2.30;;
2618;SDS011;1319;52.346;13.096;2022-08-21T15:27:54;5.97;;;2.50;;
2618;SDS011;1319;52.346;13.096;2022-08-21T15:30:20;9.52;;;2.45;;
2618;SDS011;1319;52.346;13.096;2022-08-21T15:32:45;5.43;;;2.20;;
2618;SDS011;1319;52.346;13.096;2022-08-21T15:35:11;4.22;;;2.20;;
2618;SDS011;1319;52.346;13.096;2022-08-21T15:37:36;7.82;;;2.28;;
2618;SDS011;1319;52.346;13.096;2022-08-21T15:40:02;6.85;;;2.10;;
2618;SDS011;1319;52.346;13.096;2022-08-21T15:42:28;5.80;;;2.17;;
2618;SDS011;1319;52.346;13.096;2022-08-21T15:44:54;6.78;;;2.40;;
2618;SDS011;1319;52.346;13.096;2022-08-21T15:47:25;5.90;;;2.45;;
2618;SDS011;1319;52.346;13.096;2022-08-21T15:49:51;7.88;;;2.40;;
2618;SDS011;1319;52.346;13.096;2022-08-21T15:52:17;2.83;;;1.85;;
2618;SDS011;1319;52.346;13.096;2022-08-21T15:54:42;5.07;;;2.30;;
2618;SDS011;1319;52.346;13.096;2022-08-21T15:57:09;7.57;;;2.47;;
2618;SDS011;1319;52.346;13.096;2022-08-21T15:59:38;6.22;;;2.80;;
2618;SDS011;1319;52.346;13.096;2022-08-21T16:02:04;6.43;;;2.45;;
2618;SDS011;1319;52.346;13.096;2022-08-21T16:04:30;10.15;;;2.33;;
2618;SDS011;1319;52.346;13.096;2022-08-21T16:06:55;4.72;;;2.08;;